createdAt,value
2018-04-16T16:28:12.961Z,14.77
2018-04-16T16:31:38.282Z,13.65
2018-04-16T16:34:06.653Z,12.23
2018-04-16T16:36:34.297Z,13.38
2018-04-16T16:39:01.927Z,13.10
2018-04-16T16:41:30.718Z,13.18
2018-04-16T16:43:58.362Z,12.65
2018-04-16T16:46:26.009Z,15.38
2018-04-16T16:48:54.340Z,14.57
2018-04-16T16:51:21.977Z,14.55
2018-04-16T16:53:50.596Z,13.20
2018-04-16T16:56:18.895Z,13.25
2018-04-16T16:58:46.556Z,13.10
2018-04-16T17:01:14.261Z,12.65
2018-04-16T17:03:42.241Z,12.70
2018-04-16T17:06:10.285Z,12.65
2018-04-16T17:08:37.929Z,13.55
2018-04-16T17:11:05.795Z,13.05
2018-04-16T17:13:38.280Z,11.00
2018-04-16T17:18:48.275Z,12.93
2018-04-16T17:21:22.696Z,12.50
2018-04-16T17:24:02.099Z,11.55
2018-04-16T17:26:41.947Z,11.98
2018-04-16T17:29:09.613Z,11.48
2018-04-16T17:31:48.204Z,11.63
2018-04-16T17:34:29.656Z,10.77
2018-04-16T17:37:00.115Z,12.43
2018-04-16T17:39:39.291Z,12.82
2018-04-16T17:42:20.613Z,12.48
2018-04-16T17:44:50.244Z,12.85
2018-04-16T17:47:27.115Z,12.85
2018-04-16T17:50:00.855Z,12.68
2018-04-16T17:52:37.040Z,13.45
2018-04-16T17:55:16.842Z,14.13
2018-04-16T17:57:54.539Z,14.65
2018-04-16T18:00:31.556Z,14.45
2018-04-16T18:03:07.502Z,13.43
2018-04-16T18:05:45.845Z,13.00
2018-04-16T18:08:23.800Z,13.77
2018-04-16T18:11:02.419Z,14.18
2018-04-16T18:13:39.818Z,12.55
2018-04-16T18:16:17.375Z,14.25
2018-04-16T18:18:50.472Z,12.88
2018-04-16T18:21:26.376Z,14.57
2018-04-16T18:24:03.012Z,14.52
2018-04-16T18:26:40.025Z,14.27
2018-04-16T18:29:16.386Z,13.55
2018-04-16T18:31:55.078Z,13.32
2018-04-16T18:34:34.394Z,13.70
2018-04-16T18:37:13.443Z,12.95
2018-04-16T18:39:47.328Z,12.98
2018-04-16T18:42:27.917Z,13.00
2018-04-16T18:45:08.633Z,12.65
2018-04-16T18:47:47.584Z,13.10
2018-04-16T18:50:22.307Z,12.60
2018-04-16T18:53:01.105Z,12.95
2018-04-16T18:55:29.858Z,11.93
2018-04-16T18:58:07.618Z,12.52
2018-04-16T19:00:50.199Z,12.63
2018-04-16T19:03:28.484Z,12.60
2018-04-16T19:06:09.569Z,12.23
2018-04-16T19:08:38.137Z,12.02
2018-04-16T19:13:42.392Z,14.50
2018-04-16T19:16:20.753Z,16.67
2018-04-16T19:18:49.105Z,17.17
2018-04-16T19:21:22.327Z,20.52
2018-04-16T19:23:49.924Z,21.75
2018-04-16T19:26:17.512Z,23.40
2018-04-16T19:28:45.144Z,25.83
2018-04-16T19:31:12.825Z,27.42
2018-04-16T19:33:46.105Z,29.30
2018-04-16T19:36:13.844Z,30.65
2018-04-16T19:38:41.439Z,32.63
2018-04-16T19:41:09.033Z,32.28
2018-04-16T19:43:37.407Z,34.70
2018-04-16T19:46:05.877Z,34.42
2018-04-16T19:48:39.895Z,34.80
2018-04-16T19:51:08.265Z,34.42
2018-04-16T19:53:36.928Z,34.75
2018-04-16T19:56:10.083Z,34.40
2018-04-16T19:58:37.805Z,35.22
2018-04-16T20:01:06.221Z,42.90
2018-04-16T20:03:48.731Z,46.80
2018-04-16T20:06:16.436Z,47.67
2018-04-16T20:08:44.813Z,47.72
2018-04-16T20:11:12.435Z,46.55
2018-04-16T20:13:40.020Z,46.78
2018-04-16T20:16:07.723Z,46.58
2018-04-16T20:18:36.053Z,48.90
2018-04-16T20:21:03.647Z,47.58
2018-04-16T20:23:31.233Z,47.20
2018-04-16T20:25:58.883Z,46.88
2018-04-16T20:28:26.599Z,46.17
2018-04-16T20:30:54.188Z,45.65
2018-04-16T20:33:21.780Z,45.60
2018-04-16T20:35:49.411Z,45.12
2018-04-16T20:38:17.105Z,46.03
2018-04-16T20:40:44.784Z,44.08
2018-04-16T20:43:12.380Z,46.15
2018-04-16T20:45:39.959Z,44.28
2018-04-16T20:48:07.597Z,44.00
2018-04-16T20:50:35.228Z,43.22
2018-04-16T20:53:03.598Z,44.13
2018-04-16T20:55:31.196Z,44.00
2018-04-16T20:57:58.804Z,44.92
2018-04-16T21:00:26.388Z,44.72
2018-04-16T21:02:54.741Z,46.10
2018-04-16T21:05:22.377Z,44.58
2018-04-16T21:12:55.828Z,44.55
2018-04-16T21:15:23.406Z,43.70
2018-04-16T21:17:51.766Z,44.65
2018-04-16T21:20:19.345Z,42.55
2018-04-16T21:22:47.693Z,42.10
2018-04-16T21:25:15.280Z,43.17
2018-04-16T21:27:43.640Z,41.55
2018-04-16T21:30:11.224Z,42.33
2018-04-16T21:32:39.571Z,41.95
2018-04-16T21:35:07.158Z,41.60
2018-04-16T21:37:35.503Z,39.83
2018-04-16T21:40:03.083Z,39.80
2018-04-16T21:42:31.431Z,38.67
2018-04-16T21:44:59.106Z,39.78
2018-04-16T21:47:26.767Z,38.53
2018-04-16T21:49:54.346Z,38.50
2018-04-16T21:52:22.693Z,37.28
2018-04-16T21:54:50.278Z,36.38
2018-04-16T21:57:18.634Z,36.25
2018-04-16T21:59:46.213Z,37.70
2018-04-16T22:02:14.564Z,37.30
2018-04-16T22:04:42.142Z,34.58
2018-04-16T22:07:10.483Z,36.08
2018-04-16T22:09:38.077Z,34.97
2018-04-16T22:12:06.432Z,35.50
2018-04-16T22:14:34.017Z,34.15
2018-04-16T22:17:02.363Z,33.35
2018-04-16T22:19:29.939Z,34.60
2018-04-16T22:21:58.315Z,33.17
2018-04-16T22:24:26.668Z,32.97
2018-04-16T22:26:54.255Z,32.00
2018-04-16T22:29:22.594Z,33.72
2018-04-16T22:31:50.179Z,31.48
2018-04-16T22:34:18.540Z,31.00
2018-04-16T22:36:46.135Z,30.33
2018-04-16T22:39:13.733Z,31.83
2018-04-16T22:41:41.313Z,30.90
2018-04-16T22:44:08.896Z,30.70
2018-04-16T22:46:37.241Z,30.55
2018-04-16T22:49:04.820Z,29.48
2018-04-16T22:51:32.433Z,29.45
2018-04-16T22:54:00.013Z,28.73
2018-04-16T22:56:27.598Z,28.58
2018-04-16T22:58:55.943Z,29.20
2018-04-16T23:01:23.526Z,28.98
2018-04-16T23:03:51.104Z,28.42
2018-04-16T23:06:19.451Z,28.08
2018-04-16T23:08:47.032Z,27.55
2018-04-16T23:11:15.389Z,26.73
2018-04-16T23:13:42.972Z,27.23
2018-04-16T23:16:11.316Z,26.70
2018-04-16T23:18:38.899Z,26.77
2018-04-16T23:21:07.244Z,25.92
2018-04-16T23:23:34.836Z,26.17
2018-04-16T23:26:03.181Z,26.10
2018-04-16T23:28:30.760Z,25.62
2018-04-16T23:30:59.116Z,24.90
2018-04-16T23:33:26.747Z,25.30
2018-04-16T23:35:54.332Z,23.85
2018-04-16T23:38:21.918Z,24.70
2018-04-16T23:40:50.272Z,24.02
2018-04-16T23:43:17.848Z,23.77
2018-04-16T23:45:46.195Z,23.90
2018-04-16T23:48:13.775Z,23.02
2018-04-16T23:50:41.370Z,23.00
2018-04-16T23:53:08.953Z,23.85
2018-04-16T23:55:36.536Z,21.95
2018-04-16T23:58:04.119Z,21.70
